Flight Track Log - Related Links

Times and Time Zones

All times are in EDT time to prevent confusion due to time zone crossing. See the WBR2634 flight status page for this flight to view local times or setup timezone preferences in your user account.

Time Position Orientation Groundspeed Altitude Reporting Facility
EDT Latitude Longitude Course Direction KTS MPH feet Rate Location/Type
Fri 05:59:17 PM 40.8186 -91.0903 73° East 125 144 2,800  Level Chicago Center
Fri 06:00:19 PM 40.8264 -91.0386 79° East 142 163 3,700 919 Climbing Chicago Center
Fri 06:01:00 PM 40.8667 -90.7626 90° East  Level FlightAware Approximate
Fri 06:01:21 PM 40.8408 -90.9942 67° East 136 157 4,700  Level Chicago Center
Fri 06:02:00 PM 40.8787 -90.7019 72° East  Level FlightAware Approximate
Fri 06:02:23 PM 40.8561 -90.9469 67° East 137 158 5,300  Level Chicago Center
Fri 06:03:00 PM 40.8931 -90.6416 73° East  Level FlightAware Approximate
Fri 06:03:25 PM 40.8725 -90.8869 70° East 143 165 6,400  Level Chicago Center
Fri 06:04:00 PM 40.9071 -90.5811 73° East  Level FlightAware Approximate
Fri 06:04:26 PM 40.8853 -90.8361 72° East 145 167 7,300  Level Chicago Center
Fri 06:05:28 PM 40.9011 -90.7844 68° East 150 173 8,200 823 Climbing Chicago Center
Fri 06:06:30 PM 40.9167 -90.7342 68° East 149 171 9,000 435 Climbing Chicago Center
Fri 06:07:32 PM 40.9353 -90.6761 67° East 167 192 9,100 48 Climbing Chicago Center
Fri 06:08:34 PM 40.9569 -90.6161 64° Northeast 181 208 9,100  Level Chicago Center
Fri 06:09:36 PM 40.9786 -90.5567 64° Northeast 180 207 9,100 -48 Level Chicago Center
Fri 06:10:38 PM 41.0047 -90.4867 64° Northeast 179 206 9,000 -48 Descending Chicago Center
Fri 06:11:40 PM 41.0244 -90.4289 66° East 175 201 9,000  Level Chicago Center
Fri 06:12:42 PM 41.0472 -90.3725 62° Northeast 173 199 9,000  Level Chicago Center
Fri 06:13:44 PM 41.0667 -90.3131 67° East 174 200 9,000 48 Level Chicago Center
Fri 06:14:46 PM 41.0881 -90.2561 63° Northeast 173 199 9,100 48 Climbing Chicago Center
Fri 06:15:48 PM 41.1094 -90.1964 65° Northeast 176 203 9,100  Level Chicago Center
Fri 06:16:50 PM 41.1303 -90.1394 64° Northeast 174 200 9,100 -49 Level Chicago Center
Fri 06:17:51 PM 41.1514 -90.0633 70° East 180 207 9,000 -49 Descending Chicago Center
Fri 06:18:53 PM 41.1700 -90.0022 68° East 180 207 9,000 97 Level Chicago Center
Fri 06:19:55 PM 41.1867 -89.9414 70° East 176 203 9,200 97 Climbing Chicago Center
Fri 06:20:57 PM 41.2056 -89.8831 67° East 173 199 9,200  Level Chicago Center
Fri 06:21:59 PM 41.2236 -89.8219 69° East 176 203 9,200  Level Chicago Center
Fri 06:23:01 PM 41.2431 -89.7622 67° East 176 203 9,200  Level Chicago Center
Fri 06:24:03 PM 41.2622 -89.6997 68° East 180 207 9,200 -48 Level Chicago Center
Fri 06:25:05 PM 41.2817 -89.6367 68° East 182 209 9,100 -48 Descending Chicago Center
Fri 06:26:07 PM 41.3053 -89.5625 67° East 182 209 9,100  Level Chicago Center
Fri 06:27:09 PM 41.3256 -89.5031 66° East 178 205 9,100  Level Chicago Center
Fri 06:28:11 PM 41.3411 -89.4408 72° East 177 204 9,100  Level Chicago Center
Fri 06:29:13 PM 41.3597 -89.3803 68° East 176 203 9,100  Level Chicago Center
Fri 06:30:15 PM 41.3794 -89.3208 66° East 176 203 9,100 48 Level Chicago Center
Fri 06:31:17 PM 41.4008 -89.2628 64° Northeast 175 201 9,200 48 Climbing Chicago Center
Fri 06:32:19 PM 41.4278 -89.1958 62° Northeast 172 198 9,200  Level Chicago Center
Fri 06:33:21 PM 41.4422 -89.1422 70° East 177 204 9,200 48 Level Chicago Center
Fri 06:34:23 PM 41.4667 -89.0689 66° East 180 207 9,300  Climbing Chicago Center
Fri 06:35:25 PM 41.4853 -89.0078 68° East 178 205 9,200 -48 Descending Chicago Center
Fri 06:36:27 PM 41.5056 -88.9450 67° East 183 211 9,200 -48 Level Chicago Center
Fri 06:37:29 PM 41.5258 -88.8831 66° East 184 212 9,100 -242 Descending Chicago Center
Fri 06:38:31 PM 41.5467 -88.8219 65° Northeast 182 209 8,700 -484 Descending Chicago Center
Fri 06:39:33 PM 41.5694 -88.7483 68° East 179 206 8,100 -290 Descending Chicago Center
Fri 06:40:35 PM 41.5875 -88.6864 69° East 179 206 8,100 -48 Level Chicago Center
Fri 06:41:37 PM 41.6053 -88.6283 68° East 173 199 8,000 -48 Descending Chicago Center
Fri 06:42:39 PM 41.6281 -88.5800 58° Northeast 158 182 8,000 97 Level Chicago Center
Fri 06:43:41 PM 41.6489 -88.5353 58° Northeast 144 166 8,200 97 Climbing Chicago Center
Fri 06:44:43 PM 41.6756 -88.4878 53° Northeast 159 183 8,200 -97 Level Chicago Center
Fri 06:45:45 PM 41.7036 -88.4364 54° Northeast 170 196 8,000 -97 Descending Chicago Center
Fri 06:46:47 PM 41.7361 -88.3794 53° Northeast 162 186 8,000 48 Level Chicago Center
Fri 06:47:49 PM 41.7611 -88.3314 55° Northeast 159 183 8,100 48 Climbing Chicago Center
Fri 06:48:51 PM 41.7867 -88.2847 54° Northeast 158 182 8,100  Level Chicago Center
Fri 06:49:53 PM 41.8106 -88.2378 56° Northeast 155 178 8,100  Level Chicago Center
Fri 06:50:55 PM 41.8325 -88.1869 60° Northeast 161 185 8,100  Level Chicago Center
Fri 06:51:56 PM 41.8483 -88.1292 70° East 165 190 8,100  Level Chicago Center
Fri 06:52:58 PM 41.8642 -88.0603 73° East 162 186 8,100  Level Chicago Center
Fri 06:54:00 PM 41.8792 -88.0014 71° East 166 191 8,100  Level Chicago Center
Fri 06:54:33 PM 41.8833 -87.9667 81° East 175 201 8,100 65 Level Chicago TRACON
Fri 06:55:33 PM 41.8833 -87.9000 90° East 175 201 8,200  Climbing Chicago TRACON
Fri 06:56:33 PM 41.8833 -87.8333 90° East 175 201 8,100  Descending Chicago TRACON
Fri 06:57:33 PM 41.8833 -87.7667 90° East 181 208 8,200  Climbing Chicago TRACON
Fri 06:58:33 PM 41.8667 -87.7000 109° East 185 213 8,100 -50 Descending Chicago TRACON
Fri 06:59:33 PM 41.8667 -87.6333 90° East 183 211 8,100 -245 Level Chicago TRACON
Fri 07:00:11 PM 41.8594 -87.5944 104° East 185 213 7,700 -660 Descending Chicago Center
Fri 07:01:13 PM 41.8650 -87.5231 84° East 191 220 7,000 -629 Descending Chicago Center
Fri 07:02:15 PM 41.8758 -87.4519 78° East 194 223 6,400 -581 Descending Chicago Center
Fri 07:03:17 PM 41.9072 -87.4156 41° Northeast 182 209 5,800 -608 Descending Chicago Center
Fri 07:03:34 PM 41.9167 -87.4167 355° North 154 177 5,600 -623 Descending Chicago TRACON
Fri 07:04:34 PM 41.9500 -87.4333 340° North 144 166 5,000 -571 Descending Chicago TRACON
Fri 07:05:40 PM 41.9667 -87.5000 289° West 137 158 4,400 -429 Descending Chicago TRACON
Fri 07:06:40 PM 41.9667 -87.5333 270° West 128 147 4,100 -200 Descending Chicago TRACON
Fri 07:07:40 PM 41.9667 -87.5833 270° West 119 137 4,000 -100 Descending Chicago TRACON
Fri 07:08:40 PM 41.9667 -87.6333 270° West 116 133 3,900  Descending Chicago TRACON
Fri 07:09:40 PM 41.9667 -87.6667 270° West 115 132 4,000 -397 Climbing Chicago TRACON
Fri 07:10:41 PM 41.9667 -87.7167 270° West 127 146 3,100 -793 Descending Chicago TRACON
Fri 07:11:41 PM 41.9667 -87.7667 270° West 129 148 2,400 -650 Descending Chicago TRACON
Fri 07:12:41 PM 41.9667 -87.8167 270° West 129 148 1,800 -632 Descending Chicago TRACON
Fri 07:13:35 PM 41.9667 -87.8500 270° West 118 136 1,200 -667 Descending Chicago TRACON

Login

Don't have an account? Register now (free) for customized features, flight alerts, and more!